ANA1649 RJOO-RJOM
Flight info
| Callsign | ANA1649 |
|---|---|
| Flight time | 0h 35m |
| Altitude | 24000 |
| Route | TIGER SUMAR AYAME SETOH ONOPA WASYU Y28 BAMBO Y283 ITUKI |
| Aircraft | A321/M-SDE3FGHIRWY/LB1 |
Departure
| Time | 2026-04-29 01:25 |
|---|---|
| Airport | Osaka Itami International Airport (RJOO) |
Arrival
| Time | 2026-04-29 02:00 |
|---|---|
| Airport | Matsuyama Airport (RJOM) |
| Time | Latitude | Longitude | Altitude | Speed | Heading |
|---|---|---|---|---|---|
| 2026-04-29 01:21 | 34.77349 | 135.45300 | 48 ft | 13 kts | 167° |
| 2026-04-29 01:21 | 34.77271 | 135.45272 | 50 ft | 0 kts | 230° |
| 2026-04-29 01:23 | 34.77269 | 135.45269 | 50 ft | 3 kts | 230° |
| 2026-04-29 01:23 | 34.77249 | 135.45198 | 51 ft | 15 kts | 266° |
| 2026-04-29 01:23 | 34.77293 | 135.45095 | 49 ft | 11 kts | 314° |
| 2026-04-29 01:23 | 34.77304 | 135.45081 | 48 ft | 0 kts | 315° |
| 2026-04-29 01:24 | 34.77342 | 135.45034 | 50 ft | 34 kts | 315° |
| 2026-04-29 01:24 | 34.77685 | 135.44621 | 46 ft | 101 kts | 315° |
| 2026-04-29 01:24 | 34.78307 | 135.43882 | 74 ft | 145 kts | 318° |
| 2026-04-29 01:25 | 34.79043 | 135.42962 | 471 ft | 160 kts | 315° |
| 2026-04-29 01:25 | 34.79696 | 135.41671 | 444 ft | 202 kts | 287° |
| 2026-04-29 01:25 | 34.79602 | 135.39897 | 911 ft | 210 kts | 250° |
| 2026-04-29 01:25 | 34.78723 | 135.38490 | 1787 ft | 214 kts | 214° |
| 2026-04-29 01:26 | 34.77237 | 135.38000 | 2134 ft | 239 kts | 176° |
| 2026-04-29 01:26 | 34.75490 | 135.38218 | 2533 ft | 262 kts | 178° |
| 2026-04-29 01:26 | 34.73637 | 135.37998 | 3237 ft | 270 kts | 191° |
| 2026-04-29 01:26 | 34.71773 | 135.37584 | 4116 ft | 272 kts | 194° |
| 2026-04-29 01:27 | 34.69927 | 135.37118 | 5108 ft | 271 kts | 195° |
| 2026-04-29 01:27 | 34.68080 | 135.36618 | 6005 ft | 272 kts | 199° |
| 2026-04-29 01:27 | 34.66359 | 135.35735 | 6852 ft | 266 kts | 219° |
| 2026-04-29 01:27 | 34.65039 | 135.34242 | 7750 ft | 256 kts | 239° |
| 2026-04-29 01:28 | 34.64305 | 135.32331 | 8700 ft | 249 kts | 257° |
| 2026-04-29 01:28 | 34.64204 | 135.30236 | 9652 ft | 248 kts | 275° |
| 2026-04-29 01:28 | 34.64736 | 135.28231 | 10507 ft | 256 kts | 292° |
| 2026-04-29 01:28 | 34.65785 | 135.26440 | 11288 ft | 260 kts | 296° |
| 2026-04-29 01:29 | 34.66616 | 135.24529 | 12075 ft | 253 kts | 283° |
| 2026-04-29 01:29 | 34.67024 | 135.22427 | 12531 ft | 264 kts | 274° |
| 2026-04-29 01:29 | 34.67246 | 135.20121 | 12681 ft | 287 kts | 275° |
| 2026-04-29 01:29 | 34.67640 | 135.17643 | 12812 ft | 310 kts | 277° |
| 2026-04-29 01:30 | 34.68141 | 135.15000 | 13165 ft | 324 kts | 280° |
| 2026-04-29 01:30 | 34.68623 | 135.12870 | 13680 ft | 328 kts | 281° |
| 2026-04-29 01:30 | 34.68683 | 135.12615 | 13743 ft | 328 kts | 281° |
| 2026-04-29 01:30 | 34.69320 | 135.09892 | 14386 ft | 331 kts | 281° |
| 2026-04-29 01:31 | 34.69594 | 135.08689 | 14675 ft | 331 kts | 280° |
| 2026-04-29 01:31 | 34.69869 | 135.07459 | 14957 ft | 332 kts | 280° |
| 2026-04-29 01:31 | 34.70440 | 135.04729 | 15577 ft | 332 kts | 277° |
| 2026-04-29 01:31 | 34.70633 | 135.01962 | 16161 ft | 330 kts | 265° |
| 2026-04-29 01:32 | 34.70300 | 134.99201 | 16765 ft | 331 kts | 256° |
| 2026-04-29 01:32 | 34.69770 | 134.96462 | 17319 ft | 334 kts | 257° |
| 2026-04-29 01:32 | 34.69243 | 134.93696 | 17881 ft | 337 kts | 257° |
| 2026-04-29 01:32 | 34.68716 | 134.90916 | 18438 ft | 339 kts | 257° |
| 2026-04-29 01:33 | 34.68180 | 134.88081 | 18909 ft | 341 kts | 257° |
| 2026-04-29 01:33 | 34.67647 | 134.85259 | 19355 ft | 344 kts | 257° |
| 2026-04-29 01:33 | 34.67110 | 134.82420 | 19802 ft | 347 kts | 257° |
| 2026-04-29 01:33 | 34.66565 | 134.79551 | 20238 ft | 349 kts | 257° |
| 2026-04-29 01:34 | 34.66018 | 134.76671 | 20663 ft | 352 kts | 257° |
| 2026-04-29 01:34 | 34.65469 | 134.73773 | 21053 ft | 354 kts | 257° |
| 2026-04-29 01:34 | 34.64904 | 134.70791 | 21437 ft | 358 kts | 257° |
| 2026-04-29 01:34 | 34.64344 | 134.67836 | 21846 ft | 361 kts | 257° |
| 2026-04-29 01:35 | 34.63778 | 134.64850 | 22249 ft | 364 kts | 257° |
| 2026-04-29 01:35 | 34.63205 | 134.61853 | 22638 ft | 367 kts | 257° |
| 2026-04-29 01:35 | 34.62624 | 134.58817 | 23064 ft | 369 kts | 257° |
| 2026-04-29 01:35 | 34.62045 | 134.55779 | 23468 ft | 371 kts | 257° |
| 2026-04-29 01:36 | 34.61459 | 134.52714 | 23811 ft | 374 kts | 257° |
| 2026-04-29 01:36 | 34.60865 | 134.49630 | 24027 ft | 375 kts | 257° |
| 2026-04-29 01:36 | 34.60267 | 134.46531 | 24068 ft | 379 kts | 257° |
| 2026-04-29 01:36 | 34.59653 | 134.43355 | 24076 ft | 384 kts | 257° |
| 2026-04-29 01:37 | 34.59043 | 134.40199 | 24094 ft | 384 kts | 257° |
| 2026-04-29 01:37 | 34.58432 | 134.37034 | 24093 ft | 384 kts | 257° |
| 2026-04-29 01:37 | 34.57824 | 134.33885 | 24093 ft | 384 kts | 257° |
| 2026-04-29 01:37 | 34.57212 | 134.30707 | 24094 ft | 384 kts | 257° |
| 2026-04-29 01:38 | 34.56604 | 134.27563 | 24091 ft | 384 kts | 257° |
| 2026-04-29 01:38 | 34.55991 | 134.24414 | 24091 ft | 384 kts | 257° |
| 2026-04-29 01:38 | 34.55376 | 134.21263 | 24111 ft | 383 kts | 257° |
| 2026-04-29 01:38 | 34.54757 | 134.18096 | 24111 ft | 382 kts | 257° |
| 2026-04-29 01:39 | 34.54153 | 134.14968 | 24085 ft | 384 kts | 258° |
| 2026-04-29 01:39 | 34.53801 | 134.11758 | 24088 ft | 385 kts | 263° |
| 2026-04-29 01:39 | 34.53521 | 134.08481 | 24088 ft | 385 kts | 263° |
| 2026-04-29 01:39 | 34.53242 | 134.05266 | 24084 ft | 385 kts | 263° |
| 2026-04-29 01:40 | 34.52949 | 134.01926 | 24099 ft | 385 kts | 263° |
| 2026-04-29 01:40 | 34.52663 | 133.98709 | 24103 ft | 384 kts | 263° |
| 2026-04-29 01:40 | 34.52377 | 133.95491 | 24100 ft | 384 kts | 263° |
| 2026-04-29 01:40 | 34.52089 | 133.92267 | 24101 ft | 384 kts | 263° |
| 2026-04-29 01:41 | 34.51798 | 133.89011 | 24100 ft | 384 kts | 263° |
| 2026-04-29 01:41 | 34.51508 | 133.85794 | 24097 ft | 384 kts | 262° |
| 2026-04-29 01:41 | 34.51213 | 133.82572 | 24092 ft | 384 kts | 262° |
| 2026-04-29 01:41 | 34.50918 | 133.79347 | 24092 ft | 385 kts | 262° |
| 2026-04-29 01:42 | 34.50626 | 133.76120 | 24092 ft | 385 kts | 262° |
| 2026-04-29 01:42 | 34.50428 | 133.73934 | 24093 ft | 385 kts | 262° |
| 2026-04-29 01:42 | 34.50136 | 133.70712 | 24093 ft | 385 kts | 262° |
| 2026-04-29 01:42 | 34.49839 | 133.67459 | 23957 ft | 393 kts | 262° |
| 2026-04-29 01:43 | 34.49535 | 133.64124 | 23734 ft | 396 kts | 262° |
| 2026-04-29 01:43 | 34.49229 | 133.60746 | 23484 ft | 395 kts | 262° |
| 2026-04-29 01:43 | 34.48934 | 133.57478 | 22878 ft | 386 kts | 262° |
| 2026-04-29 01:43 | 34.48642 | 133.54269 | 22271 ft | 378 kts | 262° |
| 2026-04-29 01:44 | 34.48351 | 133.51121 | 21699 ft | 371 kts | 262° |
| 2026-04-29 01:44 | 34.48062 | 133.48001 | 21103 ft | 365 kts | 262° |
| 2026-04-29 01:44 | 34.47779 | 133.44964 | 20573 ft | 358 kts | 262° |
| 2026-04-29 01:44 | 34.47502 | 133.42003 | 20063 ft | 352 kts | 262° |
| 2026-04-29 01:45 | 34.47187 | 133.39090 | 19539 ft | 345 kts | 258° |
| 2026-04-29 01:45 | 34.46533 | 133.36321 | 18993 ft | 341 kts | 250° |
| 2026-04-29 01:45 | 34.45671 | 133.33611 | 18431 ft | 338 kts | 250° |
| 2026-04-29 01:45 | 34.44846 | 133.30995 | 17837 ft | 335 kts | 250° |
| 2026-04-29 01:46 | 34.44018 | 133.28353 | 17311 ft | 332 kts | 250° |
| 2026-04-29 01:46 | 34.43188 | 133.25688 | 16814 ft | 330 kts | 250° |
| 2026-04-29 01:46 | 34.42379 | 133.23094 | 16328 ft | 329 kts | 250° |
| 2026-04-29 01:46 | 34.41570 | 133.20513 | 15850 ft | 328 kts | 250° |
| 2026-04-29 01:47 | 34.40757 | 133.17933 | 15404 ft | 327 kts | 250° |
| 2026-04-29 01:47 | 34.39938 | 133.15343 | 14933 ft | 325 kts | 249° |
| 2026-04-29 01:47 | 34.39120 | 133.12769 | 14462 ft | 323 kts | 249° |
| 2026-04-29 01:47 | 34.38299 | 133.10196 | 13972 ft | 322 kts | 250° |
| 2026-04-29 01:48 | 34.37483 | 133.07637 | 13387 ft | 322 kts | 250° |
| 2026-04-29 01:48 | 34.36675 | 133.05106 | 12867 ft | 321 kts | 250° |
| 2026-04-29 01:48 | 34.35861 | 133.02557 | 12352 ft | 319 kts | 250° |
| 2026-04-29 01:48 | 34.35063 | 133.00062 | 11826 ft | 317 kts | 250° |
| 2026-04-29 01:49 | 34.34258 | 132.97552 | 11289 ft | 314 kts | 250° |
| 2026-04-29 01:49 | 34.33481 | 132.95134 | 11084 ft | 302 kts | 250° |
| 2026-04-29 01:49 | 34.32736 | 132.92818 | 10961 ft | 288 kts | 250° |
| 2026-04-29 01:49 | 34.31809 | 132.90702 | 10838 ft | 278 kts | 238° |
| 2026-04-29 01:50 | 34.30511 | 132.88997 | 10707 ft | 272 kts | 225° |
| 2026-04-29 01:50 | 34.28941 | 132.87758 | 10558 ft | 269 kts | 213° |
| 2026-04-29 01:50 | 34.27162 | 132.87000 | 10307 ft | 272 kts | 203° |
| 2026-04-29 01:50 | 34.25336 | 132.86402 | 10069 ft | 271 kts | 204° |
| 2026-04-29 01:51 | 34.23519 | 132.85801 | 9903 ft | 270 kts | 204° |
| 2026-04-29 01:51 | 34.21710 | 132.85200 | 9762 ft | 270 kts | 204° |
| 2026-04-29 01:51 | 34.19833 | 132.84573 | 9624 ft | 270 kts | 204° |
| 2026-04-29 01:51 | 34.18086 | 132.83989 | 9490 ft | 269 kts | 203° |
| 2026-04-29 01:52 | 34.16289 | 132.83393 | 9345 ft | 259 kts | 202° |
| 2026-04-29 01:52 | 34.14578 | 132.82825 | 9048 ft | 254 kts | 203° |
| 2026-04-29 01:52 | 34.12889 | 132.82261 | 8705 ft | 251 kts | 203° |
| 2026-04-29 01:52 | 34.11218 | 132.81701 | 8348 ft | 250 kts | 202° |
| 2026-04-29 01:53 | 34.09532 | 132.81136 | 8008 ft | 249 kts | 202° |
| 2026-04-29 01:53 | 34.07856 | 132.80617 | 7643 ft | 251 kts | 195° |
| 2026-04-29 01:53 | 34.06066 | 132.80595 | 7278 ft | 259 kts | 176° |
| 2026-04-29 01:53 | 34.04264 | 132.81059 | 6901 ft | 262 kts | 172° |
| 2026-04-29 01:54 | 34.02483 | 132.81537 | 6526 ft | 263 kts | 172° |
| 2026-04-29 01:54 | 34.00695 | 132.81974 | 6124 ft | 262 kts | 178° |
| 2026-04-29 01:54 | 33.98882 | 132.82064 | 5762 ft | 260 kts | 181° |
| 2026-04-29 01:54 | 33.97664 | 132.82105 | 5520 ft | 260 kts | 181° |
| 2026-04-29 01:55 | 33.95855 | 132.82167 | 5152 ft | 260 kts | 180° |
| 2026-04-29 01:55 | 33.94043 | 132.82232 | 4789 ft | 261 kts | 180° |
| 2026-04-29 01:55 | 33.92211 | 132.82296 | 4393 ft | 261 kts | 179° |
| 2026-04-29 01:55 | 33.90397 | 132.82358 | 4059 ft | 259 kts | 179° |
| 2026-04-29 01:56 | 33.88636 | 132.82418 | 3999 ft | 246 kts | 179° |
| 2026-04-29 01:56 | 33.86983 | 132.82476 | 4019 ft | 228 kts | 179° |
| 2026-04-29 01:56 | 33.85469 | 132.82530 | 4010 ft | 204 kts | 179° |
| 2026-04-29 01:56 | 33.84082 | 132.82579 | 4044 ft | 193 kts | 179° |
| 2026-04-29 01:57 | 33.82747 | 132.82625 | 4009 ft | 187 kts | 179° |
| 2026-04-29 01:57 | 33.81468 | 132.82526 | 3965 ft | 184 kts | 194° |
| 2026-04-29 01:57 | 33.80315 | 132.81851 | 3408 ft | 184 kts | 224° |
| 2026-04-29 01:57 | 33.79690 | 132.80622 | 3033 ft | 167 kts | 251° |
| 2026-04-29 01:58 | 33.79411 | 132.79268 | 2368 ft | 169 kts | 262° |
| 2026-04-29 01:58 | 33.79325 | 132.77834 | 1735 ft | 168 kts | 272° |
| 2026-04-29 01:58 | 33.79444 | 132.76481 | 1324 ft | 157 kts | 283° |
| 2026-04-29 01:58 | 33.79755 | 132.75256 | 971 ft | 148 kts | 291° |
| 2026-04-29 01:59 | 33.80144 | 132.74149 | 690 ft | 141 kts | 296° |
| 2026-04-29 01:59 | 33.80609 | 132.73117 | 479 ft | 139 kts | 303° |
| 2026-04-29 01:59 | 33.81176 | 132.72164 | 327 ft | 138 kts | 308° |
| 2026-04-29 01:59 | 33.81787 | 132.71281 | 161 ft | 138 kts | 310° |
| 2026-04-29 02:00 | 33.82407 | 132.70407 | 27 ft | 131 kts | 311° |
| 2026-04-29 02:00 | 33.82878 | 132.69753 | 21 ft | 61 kts | 310° |
| 2026-04-29 02:00 | 33.83026 | 132.69606 | 21 ft | 17 kts | 9° |
| 2026-04-29 02:00 | 33.83088 | 132.69652 | 23 ft | 7 kts | 43° |
| 2026-04-29 02:01 | 33.83106 | 132.69697 | 21 ft | 5 kts | 82° |
| 2026-04-29 02:01 | 33.83095 | 132.69736 | 22 ft | 4 kts | 120° |
| 2026-04-29 02:01 | 33.83080 | 132.69766 | 22 ft | 4 kts | 121° |
| 2026-04-29 02:01 | 33.83068 | 132.69787 | 21 ft | 2 kts | 127° |
| 2026-04-29 02:02 | 33.83058 | 132.69802 | 21 ft | 2 kts | 127° |
| 2026-04-29 02:02 | 33.83046 | 132.69820 | 21 ft | 7 kts | 128° |
| 2026-04-29 02:02 | 33.82998 | 132.69891 | 21 ft | 10 kts | 130° |
| 2026-04-29 02:02 | 33.82957 | 132.69950 | 20 ft | 6 kts | 130° |
| 2026-04-29 02:03 | 33.82948 | 132.69961 | 21 ft | 1 kts | 131° |
| 2026-04-29 02:03 | 33.82939 | 132.69973 | 22 ft | 0 kts | 131° |